createdAt,value
2022-11-29T00:01:42.695Z,3.63
2022-11-29T00:04:12.332Z,3.90
2022-11-29T00:06:40.593Z,4.20
2022-11-29T00:09:11.502Z,4.20
2022-11-29T00:11:57.671Z,4.32
2022-11-29T00:14:26.875Z,4.90
2022-11-29T00:16:56.160Z,4.10
2022-11-29T00:19:25.334Z,4.30
2022-11-29T00:21:53.110Z,3.90
2022-11-29T00:24:20.894Z,3.95
2022-11-29T00:26:48.828Z,5.22
2022-11-29T00:29:16.445Z,4.20
2022-11-29T00:31:43.974Z,4.18
2022-11-29T00:34:12.398Z,3.58
2022-11-29T00:36:42.045Z,4.38
2022-11-29T00:39:11.611Z,4.35
2022-11-29T00:41:39.822Z,4.35
2022-11-29T00:44:07.751Z,3.83
2022-11-29T00:46:35.319Z,3.92
2022-11-29T00:49:02.961Z,5.13
2022-11-29T00:51:30.513Z,4.90
2022-11-29T00:53:59.476Z,4.53
2022-11-29T00:56:27.227Z,3.80
2022-11-29T00:58:54.906Z,4.15
2022-11-29T01:01:22.516Z,5.03
2022-11-29T01:03:50.240Z,3.85
2022-11-29T01:06:19.047Z,3.77
2022-11-29T01:08:48.017Z,5.00
2022-11-29T01:11:21.090Z,4.45
2022-11-29T01:13:50.180Z,5.13
2022-11-29T01:16:18.077Z,5.07
2022-11-29T01:18:45.751Z,5.53
2022-11-29T01:21:14.662Z,4.63
2022-11-29T01:23:42.989Z,4.72
2022-11-29T01:26:11.931Z,4.60
2022-11-29T01:28:41.678Z,4.78
2022-11-29T01:31:10.246Z,4.68
2022-11-29T01:33:39.246Z,4.25
2022-11-29T01:36:08.247Z,4.82
2022-11-29T01:38:36.500Z,4.57
2022-11-29T01:41:08.041Z,4.33
2022-11-29T01:43:51.878Z,4.60
2022-11-29T01:46:20.918Z,4.35
2022-11-29T01:48:49.110Z,5.05
2022-11-29T01:51:16.861Z,5.07
2022-11-29T01:53:45.471Z,4.38
2022-11-29T01:56:15.816Z,4.85
2022-11-29T01:58:44.007Z,5.43
2022-11-29T02:01:11.946Z,4.70
2022-11-29T02:03:40.947Z,5.63
2022-11-29T02:06:08.919Z,5.70
2022-11-29T02:08:39.054Z,4.18
2022-11-29T02:11:31.854Z,5.22
2022-11-29T02:14:09.494Z,4.43
2022-11-29T02:16:41.910Z,3.80
2022-11-29T02:19:23.885Z,4.55
2022-11-29T02:21:54.437Z,5.13
2022-11-29T02:24:47.430Z,3.67
2022-11-29T02:27:31.929Z,4.70
2022-11-29T02:30:16.475Z,6.15
2022-11-29T02:33:00.801Z,4.57
2022-11-29T02:35:40.365Z,4.32
2022-11-29T02:38:22.275Z,4.60
2022-11-29T02:41:13.143Z,4.88
2022-11-29T02:44:12.201Z,4.80
2022-11-29T02:46:55.917Z,4.68
2022-11-29T02:49:37.633Z,5.23
2022-11-29T02:52:09.741Z,5.28
2022-11-29T02:54:46.789Z,5.63
2022-11-29T02:57:21.577Z,4.90
2022-11-29T02:59:54.428Z,5.70
2022-11-29T03:02:25.934Z,4.78
2022-11-29T03:05:02.537Z,6.20
2022-11-29T03:07:37.080Z,5.83
2022-11-29T03:10:10.429Z,5.57
2022-11-29T03:12:40.909Z,4.40
2022-11-29T03:15:20.800Z,6.88
2022-11-29T03:17:57.900Z,6.43
2022-11-29T03:20:39.505Z,5.70
2022-11-29T03:23:21.692Z,5.20
2022-11-29T03:25:54.464Z,5.32
2022-11-29T03:28:24.773Z,4.80
2022-11-29T03:30:59.534Z,4.53
2022-11-29T03:33:34.315Z,5.07
2022-11-29T03:36:06.781Z,5.57
2022-11-29T03:38:40.756Z,5.82
2022-11-29T03:41:16.450Z,6.07
2022-11-29T03:43:48.471Z,5.18
2022-11-29T03:46:24.373Z,5.03
2022-11-29T03:48:55.506Z,5.53
2022-11-29T03:51:36.554Z,5.30
2022-11-29T03:54:09.272Z,6.05
2022-11-29T03:56:39.389Z,4.75
2022-11-29T03:59:15.979Z,5.18
2022-11-29T04:02:10.294Z,5.45
2022-11-29T04:04:56.895Z,6.57
2022-11-29T04:07:57.357Z,6.67
2022-11-29T04:10:39.430Z,5.80
2022-11-29T04:13:30.866Z,6.15
2022-11-29T04:16:25.300Z,6.28
2022-11-29T04:19:22.749Z,6.53
2022-11-29T04:22:12.582Z,6.90
2022-11-29T04:25:18.684Z,6.63
2022-11-29T04:28:02.910Z,5.15
2022-11-29T04:30:39.713Z,5.53
2022-11-29T04:33:45.988Z,5.88
2022-11-29T04:36:25.812Z,5.15
2022-11-29T04:39:28.380Z,6.43
2022-11-29T04:42:10.444Z,5.20
2022-11-29T04:44:51.335Z,5.30
2022-11-29T04:47:45.933Z,5.40
2022-11-29T04:50:25.049Z,4.28
2022-11-29T04:53:14.318Z,5.07
2022-11-29T04:55:45.931Z,6.47
2022-11-29T04:58:20.529Z,5.57
2022-11-29T05:00:55.675Z,5.15
2022-11-29T05:03:33.087Z,5.75
2022-11-29T05:06:09.596Z,5.20
2022-11-29T05:08:45.273Z,6.00
2022-11-29T05:11:20.799Z,6.28
2022-11-29T05:13:56.499Z,6.25
2022-11-29T05:16:50.377Z,5.13
2022-11-29T05:19:42.488Z,5.53
2022-11-29T05:22:22.105Z,5.72
2022-11-29T05:24:56.546Z,5.60
2022-11-29T05:27:33.692Z,5.45
2022-11-29T05:30:06.445Z,5.67
2022-11-29T05:32:39.699Z,6.22
2022-11-29T05:35:43.714Z,6.72
2022-11-29T05:38:34.400Z,7.15
2022-11-29T05:41:12.236Z,5.15
2022-11-29T05:43:48.516Z,5.80
2022-11-29T05:46:20.956Z,5.95
2022-11-29T05:48:58.461Z,6.78
2022-11-29T05:51:32.661Z,7.45
2022-11-29T05:54:09.177Z,6.93
2022-11-29T05:56:46.972Z,7.00
2022-11-29T05:59:17.486Z,6.28
2022-11-29T06:01:50.433Z,7.15
2022-11-29T06:04:23.122Z,6.53
2022-11-29T06:06:55.387Z,6.38
2022-11-29T06:09:25.950Z,6.30
2022-11-29T06:11:56.569Z,5.60
2022-11-29T06:14:37.263Z,4.53
2022-11-29T06:17:25.751Z,5.70
2022-11-29T06:20:09.890Z,6.55
2022-11-29T06:23:02.624Z,6.53
2022-11-29T06:25:42.633Z,6.32
2022-11-29T06:28:22.616Z,5.88
2022-11-29T06:30:57.000Z,6.70
2022-11-29T06:33:28.622Z,6.13
2022-11-29T06:36:12.123Z,5.40
2022-11-29T06:38:40.212Z,6.65
2022-11-29T06:41:08.439Z,6.45
2022-11-29T06:43:36.267Z,5.88
2022-11-29T06:46:13.672Z,5.28
2022-11-29T06:48:44.425Z,6.43
2022-11-29T06:51:18.943Z,5.33
2022-11-29T06:53:51.684Z,5.45
2022-11-29T06:56:23.254Z,6.13
2022-11-29T06:58:59.990Z,6.18
2022-11-29T07:01:34.020Z,5.53
2022-11-29T07:04:20.921Z,6.20
2022-11-29T07:06:50.698Z,5.30
2022-11-29T07:09:21.683Z,5.38
2022-11-29T07:11:50.010Z,4.93
2022-11-29T07:14:19.082Z,5.93
2022-11-29T07:16:57.064Z,5.63
2022-11-29T07:19:31.408Z,5.30
2022-11-29T07:22:09.047Z,5.68
2022-11-29T07:24:54.467Z,4.15
2022-11-29T07:27:28.340Z,4.70
2022-11-29T07:30:15.254Z,5.75
2022-11-29T07:32:54.729Z,5.87
2022-11-29T07:35:30.989Z,5.03
2022-11-29T07:38:07.294Z,5.28
2022-11-29T07:40:42.775Z,5.00
2022-11-29T07:43:20.044Z,5.10
2022-11-29T07:45:47.813Z,4.95
2022-11-29T07:48:17.396Z,4.93
2022-11-29T07:50:45.383Z,4.90
2022-11-29T07:53:17.488Z,4.55
2022-11-29T07:55:45.261Z,5.70
2022-11-29T07:58:13.541Z,5.35
2022-11-29T08:00:41.874Z,5.90
2022-11-29T08:03:10.108Z,4.28
2022-11-29T08:05:38.344Z,5.00
2022-11-29T08:08:06.873Z,5.18
2022-11-29T08:10:36.083Z,5.28
2022-11-29T08:13:03.774Z,6.45
2022-11-29T08:15:32.035Z,5.47
2022-11-29T08:17:59.575Z,7.40
2022-11-29T08:20:27.672Z,6.57
2022-11-29T08:22:56.385Z,7.65
2022-11-29T08:25:24.160Z,7.38
2022-11-29T08:27:54.541Z,7.22
2022-11-29T08:30:23.168Z,8.37
2022-11-29T08:32:51.717Z,8.02
2022-11-29T08:35:20.717Z,8.73
2022-11-29T08:37:48.272Z,9.00
2022-11-29T08:40:16.184Z,8.98
2022-11-29T08:42:44.267Z,9.00
2022-11-29T08:45:13.270Z,9.25
2022-11-29T08:47:42.290Z,9.73
2022-11-29T08:50:14.383Z,10.23
2022-11-29T08:53:01.252Z,11.23
2022-11-29T08:55:32.810Z,9.45
2022-11-29T08:58:05.600Z,11.10
2022-11-29T09:00:35.882Z,10.43
2022-11-29T09:03:22.273Z,10.75
2022-11-29T09:05:50.105Z,10.73
2022-11-29T09:08:17.698Z,11.35
2022-11-29T09:10:45.649Z,11.85
2022-11-29T09:13:13.381Z,11.13
2022-11-29T09:15:43.477Z,12.13
2022-11-29T09:18:11.473Z,11.88
2022-11-29T09:20:39.103Z,12.45
2022-11-29T09:23:06.718Z,12.47
2022-11-29T09:25:34.269Z,13.85
2022-11-29T09:28:03.032Z,12.68
2022-11-29T09:30:31.615Z,12.38
2022-11-29T09:33:02.590Z,11.85
2022-11-29T09:35:30.254Z,14.80
2022-11-29T09:37:58.239Z,13.77
2022-11-29T09:40:31.281Z,12.20
2022-11-29T09:43:02.336Z,13.57
2022-11-29T09:45:32.805Z,12.65
2022-11-29T09:48:32.977Z,13.20
2022-11-29T09:51:12.649Z,13.50
2022-11-29T09:53:56.898Z,12.87
2022-11-29T09:56:30.073Z,13.10
2022-11-29T09:59:00.971Z,12.17
2022-11-29T10:01:31.597Z,12.15
2022-11-29T10:04:02.486Z,12.20
2022-11-29T10:06:36.544Z,11.98
2022-11-29T10:09:05.696Z,11.63
2022-11-29T10:11:36.849Z,11.38
2022-11-29T10:14:11.528Z,12.13
2022-11-29T10:16:43.825Z,11.57
2022-11-29T10:19:18.306Z,11.57
2022-11-29T10:21:57.140Z,12.52
2022-11-29T10:24:26.243Z,12.10
2022-11-29T10:26:54.444Z,12.40
2022-11-29T10:29:22.798Z,11.63
2022-11-29T10:31:50.542Z,11.00
2022-11-29T10:34:21.794Z,11.93
2022-11-29T10:36:51.969Z,11.88
2022-11-29T10:39:22.959Z,12.05
2022-11-29T10:41:55.893Z,11.40
2022-11-29T10:44:23.927Z,13.90
2022-11-29T10:46:51.614Z,12.88
2022-11-29T10:49:23.424Z,11.93
2022-11-29T10:51:51.452Z,12.10
2022-11-29T10:54:39.676Z,13.05
2022-11-29T10:57:13.779Z,9.50
2022-11-29T10:59:41.555Z,9.80
2022-11-29T11:02:18.288Z,9.95
2022-11-29T11:04:48.524Z,9.10
2022-11-29T11:07:24.034Z,8.02
2022-11-29T11:09:57.598Z,8.60
2022-11-29T11:12:27.832Z,9.65
2022-11-29T11:15:16.891Z,9.55
2022-11-29T11:18:10.553Z,9.63
2022-11-29T11:20:41.903Z,10.20
2022-11-29T11:23:24.888Z,11.37
2022-11-29T11:25:58.024Z,10.75
2022-11-29T11:28:28.504Z,8.77
2022-11-29T11:31:00.389Z,10.82
2022-11-29T11:33:30.318Z,10.32
2022-11-29T11:36:25.388Z,10.95
2022-11-29T11:38:54.484Z,9.53
2022-11-29T11:41:45.087Z,9.85
2022-11-29T11:47:15.385Z,10.38
2022-11-29T11:49:48.877Z,10.87
2022-11-29T11:52:22.246Z,11.00
2022-11-29T11:54:54.933Z,10.43
2022-11-29T11:57:25.362Z,11.40
2022-11-29T11:59:56.157Z,9.50
2022-11-29T12:02:29.042Z,10.90
2022-11-29T12:04:58.749Z,10.10
2022-11-29T12:07:59.709Z,9.70
2022-11-29T12:10:22.454Z,10.68
2022-11-29T12:12:53.191Z,10.57
2022-11-29T12:15:23.639Z,10.10
2022-11-29T12:17:54.219Z,11.05
2022-11-29T12:20:26.063Z,9.85
2022-11-29T12:23:14.913Z,11.73
2022-11-29T12:25:46.164Z,10.80
2022-11-29T12:28:20.070Z,9.90
2022-11-29T12:30:53.956Z,10.57
2022-11-29T12:33:30.016Z,10.82
2022-11-29T12:36:08.783Z,10.43
2022-11-29T12:38:49.553Z,10.20
2022-11-29T12:41:26.264Z,9.63
2022-11-29T12:44:00.082Z,10.23
2022-11-29T12:46:29.231Z,10.90
2022-11-29T12:49:02.146Z,9.88
2022-11-29T12:51:36.572Z,9.63
2022-11-29T12:54:16.488Z,9.65
2022-11-29T12:56:48.856Z,10.13
2022-11-29T12:59:24.253Z,10.23
2022-11-29T13:02:08.631Z,9.40
2022-11-29T13:04:40.285Z,9.80
2022-11-29T13:07:14.587Z,8.70
2022-11-29T13:10:23.929Z,9.25
2022-11-29T13:12:54.089Z,9.90
2022-11-29T13:15:23.715Z,10.30
2022-11-29T13:17:58.423Z,9.55
2022-11-29T13:20:33.045Z,9.95
2022-11-29T13:23:06.747Z,8.75
2022-11-29T13:25:39.614Z,8.83
2022-11-29T13:28:11.250Z,9.82
2022-11-29T13:30:41.467Z,8.97
2022-11-29T13:33:14.476Z,8.98
2022-11-29T13:35:45.550Z,9.32
2022-11-29T13:38:20.228Z,9.18
2022-11-29T13:40:55.513Z,9.43
2022-11-29T13:43:30.469Z,9.48
2022-11-29T13:46:05.538Z,10.18
2022-11-29T13:48:36.860Z,10.05
2022-11-29T13:51:26.229Z,8.68
2022-11-29T13:53:54.472Z,9.45
2022-11-29T13:56:36.804Z,9.70
2022-11-29T13:59:09.457Z,8.75
2022-11-29T14:01:47.840Z,9.35
2022-11-29T14:04:28.916Z,9.87
2022-11-29T14:07:08.276Z,9.00
2022-11-29T14:09:48.433Z,9.10
2022-11-29T14:12:31.290Z,9.15
2022-11-29T14:15:02.149Z,9.38
2022-11-29T14:17:36.698Z,9.02
2022-11-29T14:20:52.461Z,9.45
2022-11-29T14:23:37.502Z,10.07
2022-11-29T14:26:28.370Z,10.30
2022-11-29T14:28:58.427Z,9.93
2022-11-29T14:31:47.247Z,10.48
2022-11-29T14:34:19.718Z,9.60
2022-11-29T14:36:51.737Z,10.07
2022-11-29T14:39:31.218Z,10.00
2022-11-29T14:42:06.468Z,10.87
2022-11-29T14:44:44.713Z,10.10
2022-11-29T14:47:21.658Z,10.15
2022-11-29T14:49:50.571Z,10.57
2022-11-29T14:52:23.540Z,10.93
2022-11-29T14:54:57.509Z,11.02
2022-11-29T14:57:56.182Z,10.02
2022-11-29T15:00:26.480Z,10.82
2022-11-29T15:02:57.057Z,10.90
2022-11-29T15:05:30.913Z,11.27
2022-11-29T15:08:07.845Z,11.35
2022-11-29T15:10:38.452Z,10.30
2022-11-29T15:13:06.157Z,10.13
2022-11-29T15:15:56.848Z,11.30
2022-11-29T15:18:36.454Z,11.45
2022-11-29T15:21:12.584Z,12.50
2022-11-29T15:23:42.396Z,11.52
2022-11-29T15:26:18.208Z,11.25
2022-11-29T15:28:46.559Z,11.60
2022-11-29T15:31:17.271Z,11.63
2022-11-29T15:33:46.220Z,12.80
2022-11-29T15:36:18.503Z,11.50
2022-11-29T15:38:48.620Z,11.40
2022-11-29T15:41:20.946Z,12.20
2022-11-29T15:43:50.073Z,11.23
2022-11-29T15:46:22.919Z,12.47
2022-11-29T15:48:50.439Z,11.80
2022-11-29T15:51:23.890Z,12.30
2022-11-29T15:54:11.243Z,11.85
2022-11-29T15:56:44.950Z,11.88
2022-11-29T15:59:19.197Z,11.93
2022-11-29T16:01:51.375Z,13.18
2022-11-29T16:04:20.520Z,12.18
2022-11-29T16:06:49.001Z,12.55
2022-11-29T16:09:19.305Z,13.27
2022-11-29T16:11:47.756Z,12.10
2022-11-29T16:14:19.588Z,12.90
2022-11-29T16:16:49.600Z,12.80
2022-11-29T16:19:26.234Z,12.32
2022-11-29T16:22:05.192Z,12.45
2022-11-29T16:24:34.692Z,12.35
2022-11-29T16:27:05.456Z,11.48
2022-11-29T16:29:36.218Z,8.32
2022-11-29T16:32:17.215Z,7.13
2022-11-29T16:34:45.720Z,4.90
2022-11-29T16:37:17.618Z,4.20
2022-11-29T16:39:48.295Z,2.70
2022-11-29T16:42:24.675Z,2.78
2022-11-29T16:45:31.876Z,3.75
2022-11-29T16:48:04.978Z,2.88
2022-11-29T16:50:35.021Z,2.20
2022-11-29T16:53:42.497Z,3.05
2022-11-29T16:56:12.429Z,3.73
2022-11-29T16:59:20.780Z,2.83
2022-11-29T17:01:31.378Z,2.75
2022-11-29T17:04:01.437Z,3.65
2022-11-29T17:06:30.469Z,2.08
2022-11-29T17:09:00.085Z,3.25
2022-11-29T17:11:27.964Z,3.67
2022-11-29T17:13:55.465Z,3.85
2022-11-29T17:16:24.640Z,1.25
2022-11-29T17:18:53.931Z,2.28
2022-11-29T17:21:24.215Z,3.08
2022-11-29T17:23:52.471Z,2.08
2022-11-29T17:26:21.014Z,2.92
2022-11-29T17:28:52.110Z,3.47
2022-11-29T17:31:21.420Z,4.90
2022-11-29T17:33:49.095Z,2.73
2022-11-29T17:36:20.203Z,1.50
2022-11-29T17:38:49.677Z,3.88
2022-11-29T17:41:20.874Z,2.75
2022-11-29T17:43:48.971Z,2.88
2022-11-29T17:46:19.218Z,3.33
2022-11-29T17:48:46.955Z,3.33
2022-11-29T17:51:43.674Z,3.47
2022-11-29T17:54:06.077Z,4.75
2022-11-29T17:56:34.125Z,4.10
2022-11-29T17:59:05.368Z,2.75
2022-11-29T18:01:34.922Z,4.03
2022-11-29T18:04:04.813Z,3.67
2022-11-29T18:06:36.987Z,3.30
2022-11-29T18:09:07.796Z,4.15
2022-11-29T18:11:47.053Z,2.58
2022-11-29T18:14:18.039Z,3.55
2022-11-29T18:16:46.505Z,3.08
2022-11-29T18:19:15.855Z,5.10
2022-11-29T18:21:43.574Z,3.63
2022-11-29T18:24:12.859Z,3.80
2022-11-29T18:26:40.798Z,3.60
2022-11-29T18:29:09.559Z,3.88
2022-11-29T18:31:38.836Z,4.22
2022-11-29T18:34:09.894Z,4.38
2022-11-29T18:36:39.644Z,3.95
2022-11-29T18:39:08.524Z,3.00
2022-11-29T18:41:38.029Z,4.20
2022-11-29T18:44:07.249Z,2.80
2022-11-29T18:46:36.590Z,3.90
2022-11-29T18:49:07.186Z,2.42
2022-11-29T18:51:36.218Z,4.47
2022-11-29T18:54:04.463Z,5.03
2022-11-29T18:56:34.375Z,4.70
2022-11-29T18:59:08.569Z,3.72
2022-11-29T19:01:42.101Z,3.78
2022-11-29T19:04:11.438Z,3.65
2022-11-29T19:06:40.177Z,2.72
2022-11-29T19:09:11.935Z,4.32
2022-11-29T19:11:40.597Z,5.28
2022-11-29T19:14:13.563Z,3.33
2022-11-29T19:16:42.678Z,5.55
2022-11-29T19:19:11.787Z,3.50
2022-11-29T19:21:41.683Z,3.88
2022-11-29T19:24:14.686Z,4.47
2022-11-29T19:26:45.292Z,3.75
2022-11-29T19:29:14.901Z,4.18
2022-11-29T19:31:45.907Z,3.63
2022-11-29T19:34:14.485Z,5.30
2022-11-29T19:36:44.748Z,3.70
2022-11-29T19:39:13.966Z,2.53
2022-11-29T19:41:43.226Z,3.13
2022-11-29T19:44:11.794Z,2.80
2022-11-29T19:46:42.837Z,4.47
2022-11-29T19:49:11.163Z,3.22
2022-11-29T19:51:39.895Z,3.97
2022-11-29T19:54:09.042Z,4.60
2022-11-29T19:56:38.170Z,4.30
2022-11-29T19:59:07.493Z,3.05
2022-11-29T20:01:40.662Z,4.47
2022-11-29T20:04:11.143Z,3.00
2022-11-29T20:06:39.323Z,3.33
2022-11-29T20:09:07.602Z,4.57
2022-11-29T20:11:35.917Z,2.80
2022-11-29T20:14:05.443Z,3.97
2022-11-29T20:16:34.657Z,3.40
2022-11-29T20:19:03.594Z,3.90
2022-11-29T20:21:33.921Z,4.57
2022-11-29T20:24:03.613Z,4.53
2022-11-29T20:26:32.829Z,4.07
2022-11-29T20:29:02.483Z,4.57
2022-11-29T20:31:32.445Z,4.05
2022-11-29T20:34:00.152Z,3.30
2022-11-29T20:36:48.664Z,3.90
2022-11-29T20:39:24.766Z,3.50
2022-11-29T20:42:03.401Z,2.90
2022-11-29T20:44:38.707Z,4.23
2022-11-29T20:47:14.308Z,4.13
2022-11-29T20:49:42.625Z,3.15
2022-11-29T20:52:15.721Z,3.20
2022-11-29T20:54:44.291Z,4.18
2022-11-29T20:57:12.071Z,3.08
2022-11-29T20:59:39.621Z,3.80
2022-11-29T21:02:07.629Z,3.13
2022-11-29T21:04:35.599Z,4.20
2022-11-29T21:07:03.289Z,3.20
2022-11-29T21:09:33.188Z,3.60
2022-11-29T21:12:02.436Z,4.28
2022-11-29T21:14:31.634Z,3.20
2022-11-29T21:17:00.778Z,4.80
2022-11-29T21:19:29.742Z,4.68
2022-11-29T21:22:05.837Z,5.32
2022-11-29T21:24:42.579Z,3.88
2022-11-29T21:27:14.981Z,3.60
2022-11-29T21:29:43.091Z,5.65
2022-11-29T21:32:21.169Z,4.30
2022-11-29T21:34:49.209Z,3.95
2022-11-29T21:37:17.906Z,4.87
2022-11-29T21:39:48.352Z,3.90
2022-11-29T21:42:16.229Z,4.97
2022-11-29T21:44:44.018Z,2.53
2022-11-29T21:47:11.853Z,3.70
2022-11-29T21:49:39.907Z,4.40
2022-11-29T21:52:07.496Z,3.75
2022-11-29T21:54:35.094Z,5.50
2022-11-29T21:57:05.415Z,4.88
2022-11-29T21:59:34.240Z,4.03
2022-11-29T22:02:02.144Z,3.63
2022-11-29T22:04:29.883Z,3.95
2022-11-29T22:06:57.772Z,4.07
2022-11-29T22:09:25.527Z,4.65
2022-11-29T22:11:54.060Z,4.00
2022-11-29T22:14:23.754Z,3.97
2022-11-29T22:16:52.746Z,3.37
2022-11-29T22:19:21.645Z,3.22
2022-11-29T22:21:50.688Z,4.13
2022-11-29T22:24:19.946Z,3.85
2022-11-29T22:26:48.408Z,3.80
2022-11-29T22:29:17.689Z,3.22
2022-11-29T22:31:48.599Z,5.63
2022-11-29T22:34:16.217Z,2.47
2022-11-29T22:36:43.893Z,4.35
2022-11-29T22:39:11.860Z,3.25
2022-11-29T22:41:40.722Z,3.65
2022-11-29T22:44:08.744Z,2.95
2022-11-29T22:46:37.295Z,3.28
2022-11-29T22:49:07.256Z,3.80
2022-11-29T22:51:38.071Z,4.43
2022-11-29T22:54:07.012Z,3.97
2022-11-29T22:56:37.221Z,3.73
2022-11-29T22:59:05.894Z,3.90
2022-11-29T23:01:35.126Z,4.57
2022-11-29T23:04:06.153Z,4.50
2022-11-29T23:06:40.522Z,3.70
2022-11-29T23:09:10.817Z,4.03
2022-11-29T23:11:38.796Z,2.88
2022-11-29T23:14:06.510Z,3.72
2022-11-29T23:16:35.433Z,3.70
2022-11-29T23:19:03.022Z,4.22
2022-11-29T23:21:32.308Z,3.80
2022-11-29T23:24:02.536Z,3.28
2022-11-29T23:26:33.878Z,4.10
2022-11-29T23:29:01.432Z,4.32
2022-11-29T23:31:29.346Z,3.95
2022-11-29T23:33:57.139Z,2.88
2022-11-29T23:36:24.657Z,3.67
2022-11-29T23:38:52.612Z,3.47
2022-11-29T23:41:21.613Z,5.07
2022-11-29T23:43:50.071Z,2.83
2022-11-29T23:46:20.320Z,3.00
2022-11-29T23:48:48.337Z,3.90
2022-11-29T23:51:16.764Z,3.33
2022-11-29T23:53:44.874Z,3.03
2022-11-29T23:56:14.458Z,3.80
2022-11-29T23:58:44.526Z,3.08
